Lakeside, Colorado
Current Conditions -  °F | °C
As of 7:53 PM on Wednesday 26 Nov 2014 (Local Time) from KBJC Reporting Station
Scattered Clouds Scattered Clouds  
Wind Chill: 24°   Ceiling: Unl
Heat Index: 30°   Visibility: 20mi
Dew Point: 27°   Wind: 6mph
Humidity: 86%   Direction: 350°N
Pressure: 30.23"   Gusts: NA
Location:  39.775°N, 105.049°W
Report Text: KBJC 270253Z 35005KT 20SM FEW080 SCT120 M01/M03 A3023
Loading
Personal Weather Stations






























Interactive Weather Map New forecast layout! Learn more

10-Day Weather Forecast

Advertisements
Track Severe Weather on mobile